sensor_id;sensor_type;location;lat;lon;timestamp;P1;durP1;ratioP1;P2;durP2;ratioP2
27869;SDS011;15225;50.730;4.244;2023-11-19T16:41:06;34.42;;;5.78;;
27869;SDS011;15225;50.730;4.244;2023-11-19T16:43:32;43.50;;;8.85;;
27869;SDS011;15225;50.730;4.244;2023-11-19T16:45:58;31.65;;;6.28;;
27869;SDS011;15225;50.730;4.244;2023-11-19T16:48:23;41.35;;;5.60;;
27869;SDS011;15225;50.730;4.244;2023-11-19T16:50:49;33.78;;;7.07;;
27869;SDS011;15225;50.730;4.244;2023-11-19T16:53:16;42.03;;;7.35;;
27869;SDS011;15225;50.730;4.244;2023-11-19T16:55:42;46.88;;;7.85;;
27869;SDS011;15225;50.730;4.244;2023-11-19T16:58:08;37.67;;;7.05;;
27869;SDS011;15225;50.730;4.244;2023-11-19T17:00:35;36.63;;;6.65;;
27869;SDS011;15225;50.730;4.244;2023-11-19T17:03:04;29.75;;;5.60;;
27869;SDS011;15225;50.730;4.244;2023-11-19T17:05:30;32.95;;;6.13;;
27869;SDS011;15225;50.730;4.244;2023-11-19T17:07:58;36.72;;;6.57;;
27869;SDS011;15225;50.730;4.244;2023-11-19T17:10:24;27.15;;;5.85;;
27869;SDS011;15225;50.730;4.244;2023-11-19T17:12:50;36.33;;;6.93;;
27869;SDS011;15225;50.730;4.244;2023-11-19T17:15:16;34.90;;;6.25;;
27869;SDS011;15225;50.730;4.244;2023-11-19T17:17:42;36.45;;;6.22;;
27869;SDS011;15225;50.730;4.244;2023-11-19T17:20:09;30.27;;;5.68;;
27869;SDS011;15225;50.730;4.244;2023-11-19T17:22:37;35.25;;;7.22;;
27869;SDS011;15225;50.730;4.244;2023-11-19T17:25:04;35.95;;;5.95;;
27869;SDS011;15225;50.730;4.244;2023-11-19T17:27:36;37.30;;;6.05;;
27869;SDS011;15225;50.730;4.244;2023-11-19T17:30:05;36.70;;;6.57;;
27869;SDS011;15225;50.730;4.244;2023-11-19T17:32:31;35.47;;;5.82;;
27869;SDS011;15225;50.730;4.244;2023-11-19T17:34:57;32.28;;;5.88;;
27869;SDS011;15225;50.730;4.244;2023-11-19T17:37:24;39.58;;;6.05;;
27869;SDS011;15225;50.730;4.244;2023-11-19T17:39:49;37.25;;;7.07;;
27869;SDS011;15225;50.730;4.244;2023-11-19T17:42:17;23.80;;;4.50;;
27869;SDS011;15225;50.730;4.244;2023-11-19T17:44:42;23.45;;;5.00;;
27869;SDS011;15225;50.730;4.244;2023-11-19T17:47:08;29.67;;;4.65;;
27869;SDS011;15225;50.730;4.244;2023-11-19T17:49:34;25.77;;;5.55;;
27869;SDS011;15225;50.730;4.244;2023-11-19T17:52:00;27.92;;;4.68;;
27869;SDS011;15225;50.730;4.244;2023-11-19T17:54:25;28.50;;;5.55;;
27869;SDS011;15225;50.730;4.244;2023-11-19T17:56:51;24.80;;;4.85;;
27869;SDS011;15225;50.730;4.244;2023-11-19T17:59:17;28.92;;;5.00;;
27869;SDS011;15225;50.730;4.244;2023-11-19T18:01:43;27.35;;;5.05;;
27869;SDS011;15225;50.730;4.244;2023-11-19T18:04:08;23.90;;;4.55;;
27869;SDS011;15225;50.730;4.244;2023-11-19T18:06:35;37.65;;;6.00;;
27869;SDS011;15225;50.730;4.244;2023-11-19T18:09:02;30.23;;;4.90;;
27869;SDS011;15225;50.730;4.244;2023-11-19T18:11:29;25.35;;;5.53;;
27869;SDS011;15225;50.730;4.244;2023-11-19T18:14:01;24.70;;;5.15;;
27869;SDS011;15225;50.730;4.244;2023-11-19T18:16:27;32.60;;;5.05;;
27869;SDS011;15225;50.730;4.244;2023-11-19T18:18:53;25.83;;;5.30;;
27869;SDS011;15225;50.730;4.244;2023-11-19T18:21:18;25.17;;;5.38;;
27869;SDS011;15225;50.730;4.244;2023-11-19T18:23:44;27.92;;;5.15;;
27869;SDS011;15225;50.730;4.244;2023-11-19T18:26:11;26.98;;;6.50;;
27869;SDS011;15225;50.730;4.244;2023-11-19T18:28:36;22.13;;;4.97;;
27869;SDS011;15225;50.730;4.244;2023-11-19T18:31:02;28.77;;;5.28;;
27869;SDS011;15225;50.730;4.244;2023-11-19T18:33:28;33.83;;;5.88;;
27869;SDS011;15225;50.730;4.244;2023-11-19T18:35:54;28.00;;;5.13;;
27869;SDS011;15225;50.730;4.244;2023-11-19T18:38:20;31.48;;;5.47;;
27869;SDS011;15225;50.730;4.244;2023-11-19T18:40:46;29.25;;;4.82;;
27869;SDS011;15225;50.730;4.244;2023-11-19T18:43:11;20.55;;;3.78;;
27869;SDS011;15225;50.730;4.244;2023-11-19T18:45:38;17.50;;;3.60;;
27869;SDS011;15225;50.730;4.244;2023-11-19T18:48:04;30.80;;;4.72;;
27869;SDS011;15225;50.730;4.244;2023-11-19T18:50:31;16.27;;;4.28;;
27869;SDS011;15225;50.730;4.244;2023-11-19T18:52:56;24.50;;;4.30;;
27869;SDS011;15225;50.730;4.244;2023-11-19T18:55:22;15.70;;;3.97;;
27869;SDS011;15225;50.730;4.244;2023-11-19T18:57:48;22.48;;;4.80;;
27869;SDS011;15225;50.730;4.244;2023-11-19T19:00:14;24.15;;;4.82;;
27869;SDS011;15225;50.730;4.244;2023-11-19T19:02:41;21.90;;;4.47;;
27869;SDS011;15225;50.730;4.244;2023-11-19T19:05:07;23.83;;;4.15;;
27869;SDS011;15225;50.730;4.244;2023-11-19T19:07:33;17.25;;;4.03;;
27869;SDS011;15225;50.730;4.244;2023-11-19T19:09:58;22.40;;;4.80;;
27869;SDS011;15225;50.730;4.244;2023-11-19T19:12:25;29.00;;;4.18;;
27869;SDS011;15225;50.730;4.244;2023-11-19T19:14:51;19.55;;;3.78;;
27869;SDS011;15225;50.730;4.244;2023-11-19T19:17:19;20.75;;;4.20;;
27869;SDS011;15225;50.730;4.244;2023-11-19T19:19:45;20.30;;;4.40;;
27869;SDS011;15225;50.730;4.244;2023-11-19T19:22:11;20.23;;;4.53;;
27869;SDS011;15225;50.730;4.244;2023-11-19T19:24:36;26.38;;;4.35;;
27869;SDS011;15225;50.730;4.244;2023-11-19T19:27:02;17.98;;;4.32;;
27869;SDS011;15225;50.730;4.244;2023-11-19T19:29:28;23.80;;;4.15;;
27869;SDS011;15225;50.730;4.244;2023-11-19T19:31:55;25.05;;;4.72;;
27869;SDS011;15225;50.730;4.244;2023-11-19T19:34:21;21.13;;;3.63;;
27869;SDS011;15225;50.730;4.244;2023-11-19T19:36:47;18.85;;;3.50;;
27869;SDS011;15225;50.730;4.244;2023-11-19T19:39:12;26.20;;;4.88;;
27869;SDS011;15225;50.730;4.244;2023-11-19T19:41:41;18.90;;;4.38;;
27869;SDS011;15225;50.730;4.244;2023-11-19T19:44:07;23.80;;;4.65;;
27869;SDS011;15225;50.730;4.244;2023-11-19T19:46:40;30.75;;;4.93;;
27869;SDS011;15225;50.730;4.244;2023-11-19T19:49:07;23.45;;;4.15;;
27869;SDS011;15225;50.730;4.244;2023-11-19T19:51:33;16.50;;;4.25;;
27869;SDS011;15225;50.730;4.244;2023-11-19T19:53:59;26.27;;;5.03;;
27869;SDS011;15225;50.730;4.244;2023-11-19T19:56:24;21.50;;;4.45;;
27869;SDS011;15225;50.730;4.244;2023-11-19T19:58:50;16.58;;;3.60;;
27869;SDS011;15225;50.730;4.244;2023-11-19T20:01:18;26.65;;;4.60;;
27869;SDS011;15225;50.730;4.244;2023-11-19T20:03:44;24.95;;;4.05;;
27869;SDS011;15225;50.730;4.244;2023-11-19T20:06:13;23.65;;;4.53;;
27869;SDS011;15225;50.730;4.244;2023-11-19T20:08:39;25.02;;;4.60;;
27869;SDS011;15225;50.730;4.244;2023-11-19T20:11:05;16.73;;;3.72;;
27869;SDS011;15225;50.730;4.244;2023-11-19T20:13:34;17.48;;;3.85;;
27869;SDS011;15225;50.730;4.244;2023-11-19T20:16:01;24.48;;;4.80;;
27869;SDS011;15225;50.730;4.244;2023-11-19T20:18:30;11.70;;;2.80;;
27869;SDS011;15225;50.730;4.244;2023-11-19T20:21:00;15.63;;;3.55;;
27869;SDS011;15225;50.730;4.244;2023-11-19T20:23:31;17.33;;;4.43;;
27869;SDS011;15225;50.730;4.244;2023-11-19T20:25:57;23.17;;;4.05;;
27869;SDS011;15225;50.730;4.244;2023-11-19T20:28:23;14.75;;;3.75;;
27869;SDS011;15225;50.730;4.244;2023-11-19T20:30:49;24.35;;;4.90;;
27869;SDS011;15225;50.730;4.244;2023-11-19T20:33:16;19.17;;;3.20;;
27869;SDS011;15225;50.730;4.244;2023-11-19T20:35:44;18.40;;;4.55;;
27869;SDS011;15225;50.730;4.244;2023-11-19T20:38:10;20.08;;;3.95;;
27869;SDS011;15225;50.730;4.244;2023-11-19T20:40:36;14.52;;;3.63;;
27869;SDS011;15225;50.730;4.244;2023-11-19T20:43:03;18.77;;;4.38;;
27869;SDS011;15225;50.730;4.244;2023-11-19T20:45:29;16.98;;;4.03;;
27869;SDS011;15225;50.730;4.244;2023-11-19T20:47:56;16.15;;;3.80;;
27869;SDS011;15225;50.730;4.244;2023-11-19T20:50:23;19.08;;;3.85;;
27869;SDS011;15225;50.730;4.244;2023-11-19T20:52:50;10.60;;;2.95;;
27869;SDS011;15225;50.730;4.244;2023-11-19T20:55:18;24.83;;;4.43;;
27869;SDS011;15225;50.730;4.244;2023-11-19T20:57:45;22.33;;;3.80;;
27869;SDS011;15225;50.730;4.244;2023-11-19T21:00:12;21.33;;;4.45;;
27869;SDS011;15225;50.730;4.244;2023-11-19T21:02:43;19.33;;;3.95;;
27869;SDS011;15225;50.730;4.244;2023-11-19T21:05:10;21.33;;;3.85;;
27869;SDS011;15225;50.730;4.244;2023-11-19T21:07:35;19.40;;;4.13;;
27869;SDS011;15225;50.730;4.244;2023-11-19T21:10:01;11.75;;;3.50;;
27869;SDS011;15225;50.730;4.244;2023-11-19T21:12:28;21.75;;;4.30;;
27869;SDS011;15225;50.730;4.244;2023-11-19T21:14:54;20.08;;;4.53;;
27869;SDS011;15225;50.730;4.244;2023-11-19T21:17:20;15.95;;;3.85;;
27869;SDS011;15225;50.730;4.244;2023-11-19T21:19:46;19.08;;;3.78;;
27869;SDS011;15225;50.730;4.244;2023-11-19T21:22:12;17.95;;;3.55;;
27869;SDS011;15225;50.730;4.244;2023-11-19T21:24:38;20.75;;;3.65;;
27869;SDS011;15225;50.730;4.244;2023-11-19T21:27:06;19.90;;;4.38;;
27869;SDS011;15225;50.730;4.244;2023-11-19T21:29:32;23.63;;;3.72;;
27869;SDS011;15225;50.730;4.244;2023-11-19T21:31:58;16.42;;;3.58;;
27869;SDS011;15225;50.730;4.244;2023-11-19T21:34:24;21.88;;;3.95;;
27869;SDS011;15225;50.730;4.244;2023-11-19T21:36:51;21.90;;;3.20;;
27869;SDS011;15225;50.730;4.244;2023-11-19T21:39:17;26.00;;;3.70;;
27869;SDS011;15225;50.730;4.244;2023-11-19T21:41:45;19.52;;;3.60;;
27869;SDS011;15225;50.730;4.244;2023-11-19T21:44:13;16.85;;;3.45;;
27869;SDS011;15225;50.730;4.244;2023-11-19T21:46:39;21.90;;;3.78;;
27869;SDS011;15225;50.730;4.244;2023-11-19T21:49:05;18.90;;;4.28;;
27869;SDS011;15225;50.730;4.244;2023-11-19T21:51:31;25.02;;;4.07;;
27869;SDS011;15225;50.730;4.244;2023-11-19T21:53:56;20.10;;;4.57;;
27869;SDS011;15225;50.730;4.244;2023-11-19T21:56:22;17.05;;;3.50;;
